Time;durP1;ratioP1;P1;durP2;ratioP2;P2;SDS_P1;SDS_P2;PMS_P1;PMS_P2;Temp;Humidity;BMP_temperature;BMP_pressure;BME280_temperature;BME280_humidity;BME280_pressure;Samples;Min_cycle;Max_cycle;Signal;HPM_P1;HPM_P2
2022/03/05 00:00:49;;;;;;;38.85;20.17;;;-0.60;99.90;;;;;;5098485;28;20072;-85
2022/03/05 00:03:17;;;;;;;35.22;18.85;;;-0.70;99.90;;;;;;5100703;28;20073;-85
2022/03/05 00:05:44;;;;;;;35.65;19.13;;;-0.70;99.90;;;;;;5081394;28;20063;-85
2022/03/05 00:08:11;;;;;;;30.83;17.20;;;-0.80;99.90;;;;;;5078372;28;20136;-85
2022/03/05 00:10:38;;;;;;;32.15;17.42;;;-0.80;99.90;;;;;;5092896;28;20131;-85
2022/03/05 00:13:05;;;;;;;28.42;16.13;;;-0.90;99.90;;;;;;5093105;28;20051;-85
2022/03/05 00:15:32;;;;;;;31.13;16.50;;;-0.80;99.90;;;;;;5074977;28;20515;-85
2022/03/05 00:17:58;;;;;;;31.42;17.13;;;-0.80;99.90;;;;;;5092039;28;20132;-85
2022/03/05 00:20:26;;;;;;;28.88;15.88;;;-0.90;99.90;;;;;;5093276;28;20044;-84
2022/03/05 00:22:53;;;;;;;33.25;15.85;;;-0.80;99.90;;;;;;5075315;28;20048;-85
2022/03/05 00:25:24;;;;;;;29.00;15.45;;;-0.90;99.90;;;;;;5074896;28;20135;-85
2022/03/05 00:27:52;;;;;;;25.98;14.98;;;-0.90;99.90;;;;;;5076700;28;20122;-84
2022/03/05 00:30:19;;;;;;;29.38;15.88;;;-1.10;99.90;;;;;;5079314;28;20044;-84
2022/03/05 00:32:46;;;;;;;35.55;18.63;;;-1.10;99.90;;;;;;5079197;28;20121;-84
2022/03/05 00:35:13;;;;;;;33.05;17.77;;;-1.10;99.90;;;;;;5096500;28;20052;-84
2022/03/05 00:37:40;;;;;;;30.73;18.05;;;-1.10;99.90;;;;;;5096975;28;20504;-84
2022/03/05 00:40:07;;;;;;;29.90;17.52;;;-1.20;99.90;;;;;;5096393;28;20479;-84
2022/03/05 00:42:34;;;;;;;34.47;18.35;;;-1.10;99.90;;;;;;5078365;28;20575;-84
2022/03/05 00:45:01;;;;;;;31.35;17.55;;;-1.20;99.90;;;;;;5095273;28;20055;-84
2022/03/05 00:47:28;;;;;;;34.17;18.25;;;-1.20;99.90;;;;;;5096642;28;20052;-84
2022/03/05 00:49:54;;;;;;;34.33;18.00;;;-1.20;99.90;;;;;;5078309;28;20082;-84
2022/03/05 00:52:22;;;;;;;35.25;18.90;;;-1.30;99.90;;;;;;5095448;28;20131;-84
2022/03/05 00:54:48;;;;;;;32.80;17.85;;;-1.40;99.90;;;;;;5094936;28;20475;-84
2022/03/05 00:57:15;;;;;;;34.90;18.38;;;-1.50;99.90;;;;;;5096167;28;20044;-85
2022/03/05 00:59:42;;;;;;;29.60;16.63;;;-1.50;99.90;;;;;;5095290;28;20464;-84
2022/03/05 01:02:09;;;;;;;36.85;18.02;;;-1.60;99.90;;;;;;5094851;28;20492;-84
2022/03/05 01:04:36;;;;;;;39.30;18.15;;;-1.70;99.90;;;;;;5095387;28;20401;-84
2022/03/05 01:07:04;;;;;;;35.67;18.27;;;-1.70;99.90;;;;;;5095097;28;20060;-84
2022/03/05 01:09:30;;;;;;;42.80;20.02;;;-1.80;99.90;;;;;;5095678;28;20059;-84
2022/03/05 01:11:57;;;;;;;37.83;18.77;;;-1.70;99.90;;;;;;5078020;28;20048;-84
2022/03/05 01:14:24;;;;;;;35.72;18.92;;;-1.80;99.90;;;;;;5077786;28;20040;-84
2022/03/05 01:16:51;;;;;;;38.00;19.05;;;-1.80;99.90;;;;;;5077927;28;20048;-84
2022/03/05 01:19:18;;;;;;;41.33;18.80;;;-1.90;99.90;;;;;;5094587;28;20233;-84
2022/03/05 01:21:45;;;;;;;36.30;19.00;;;-1.80;99.90;;;;;;5077902;28;20110;-84
2022/03/05 01:24:11;;;;;;;35.80;18.95;;;-1.80;99.90;;;;;;5094508;28;20052;-85
2022/03/05 01:26:38;;;;;;;35.97;18.88;;;-1.80;99.90;;;;;;5094926;28;20412;-84
2022/03/05 01:29:05;;;;;;;41.55;19.67;;;-1.80;99.90;;;;;;5100957;28;20130;-85
2022/03/05 01:31:32;;;;;;;35.78;18.50;;;-1.80;99.90;;;;;;5094653;28;20088;-85
2022/03/05 01:33:58;;;;;;;32.67;17.15;;;-1.90;99.90;;;;;;5094005;28;20044;-85
2022/03/05 01:36:25;;;;;;;36.15;19.08;;;-1.80;99.90;;;;;;5094386;28;20051;-85
2022/03/05 01:38:52;;;;;;;39.88;19.20;;;-1.90;99.90;;;;;;5093691;28;20054;-85
2022/03/05 01:41:19;;;;;;;40.35;18.23;;;-1.90;99.90;;;;;;5095098;28;20138;-85
2022/03/05 01:43:50;;;;;;;42.85;18.77;;;-1.90;99.90;;;;;;5093581;28;20489;-85
2022/03/05 01:46:46;;;;;;;34.55;18.08;;;-1.90;99.90;;;;;;5076624;28;20044;-84
2022/03/05 01:49:13;;;;;;;36.30;16.90;;;-2.00;99.90;;;;;;5064628;28;20101;-85
2022/03/05 01:51:41;;;;;;;37.83;17.92;;;-1.90;99.90;;;;;;5077096;28;20419;-85
2022/03/05 01:54:09;;;;;;;36.03;17.67;;;-1.90;99.90;;;;;;5077509;28;20127;-85
2022/03/05 01:56:37;;;;;;;38.25;18.02;;;-2.00;99.90;;;;;;5078366;28;20055;-85
2022/03/05 01:59:05;;;;;;;33.30;16.80;;;-2.10;99.90;;;;;;5079116;28;20047;-85
2022/03/05 02:01:32;;;;;;;35.92;16.40;;;-2.10;99.90;;;;;;5096516;28;20048;-85
2022/03/05 02:04:00;;;;;;;31.63;16.92;;;-2.10;99.90;;;;;;5078459;28;20048;-85
2022/03/05 02:06:27;;;;;;;33.70;16.60;;;-2.30;99.90;;;;;;5095188;28;20063;-85
2022/03/05 02:08:56;;;;;;;34.85;16.55;;;-2.40;99.90;;;;;;5094525;28;20587;-84
2022/03/05 02:11:24;;;;;;;33.50;16.52;;;-2.40;99.90;;;;;;5095850;28;20088;-84
2022/03/05 02:13:50;;;;;;;36.95;17.42;;;-2.40;99.90;;;;;;5077520;28;20044;-85
2022/03/05 02:16:19;;;;;;;35.70;16.92;;;-2.40;99.90;;;;;;5095316;28;20043;-85
2022/03/05 02:18:47;;;;;;;35.83;17.83;;;-2.40;99.90;;;;;;5077380;28;20093;-85
2022/03/05 02:21:15;;;;;;;35.17;16.85;;;-2.50;99.90;;;;;;5077142;28;20123;-85
2022/03/05 02:23:42;;;;;;;30.85;16.10;;;-2.60;99.90;;;;;;5076890;28;20131;-85
2022/03/05 02:26:09;;;;;;;33.75;16.40;;;-2.70;99.90;;;;;;5077025;28;20421;-85
2022/03/05 02:28:36;;;;;;;35.22;16.42;;;-2.80;99.90;;;;;;5076981;28;20560;-85
2022/03/05 02:31:04;;;;;;;32.97;16.88;;;-2.80;99.90;;;;;;5094532;28;20134;-85
2022/03/05 02:33:31;;;;;;;33.78;16.92;;;-2.90;99.90;;;;;;5076561;28;20548;-85
2022/03/05 02:35:58;;;;;;;34.45;16.63;;;-3.10;99.90;;;;;;5093215;28;20127;-85
2022/03/05 02:38:25;;;;;;;33.55;16.85;;;-3.20;99.90;;;;;;5076256;28;20131;-85
2022/03/05 02:40:53;;;;;;;38.45;17.13;;;-3.30;99.90;;;;;;5093197;28;20572;-85
2022/03/05 02:43:21;;;;;;;32.90;16.20;;;-3.40;99.90;;;;;;5076541;28;20080;-84
2022/03/05 02:45:49;;;;;;;37.90;17.17;;;-3.40;99.90;;;;;;5076402;28;20048;-85
2022/03/05 02:48:18;;;;;;;35.67;16.52;;;-3.40;99.90;;;;;;5076088;28;20139;-85
2022/03/05 02:50:47;;;;;;;34.55;16.27;;;-3.50;99.90;;;;;;5075757;28;20126;-84
2022/03/05 02:53:15;;;;;;;36.10;16.50;;;-3.60;99.90;;;;;;5076296;28;20055;-84
2022/03/05 02:55:42;;;;;;;36.67;15.65;;;-3.60;99.90;;;;;;5076187;28;20539;-85
2022/03/05 02:58:09;;;;;;;33.00;15.75;;;-3.60;99.90;;;;;;5094211;28;20090;-85
2022/03/05 03:00:37;;;;;;;33.72;16.42;;;-3.60;99.90;;;;;;5092859;28;20086;-85
2022/03/05 03:03:04;;;;;;;38.33;16.30;;;-3.70;99.90;;;;;;5092822;28;20044;-84
2022/03/05 03:05:31;;;;;;;37.60;16.88;;;-3.70;99.90;;;;;;5092730;28;20052;-84
2022/03/05 03:07:57;;;;;;;36.95;16.85;;;-3.70;99.90;;;;;;5092442;28;20135;-84
2022/03/05 03:10:24;;;;;;;37.78;17.35;;;-3.60;99.90;;;;;;5075604;28;20064;-84
2022/03/05 03:12:51;;;;;;;38.47;16.60;;;-3.60;99.90;;;;;;5093725;28;20135;-84
2022/03/05 03:15:18;;;;;;;36.90;16.77;;;-3.60;99.90;;;;;;5092452;28;20068;-84
2022/03/05 03:17:47;;;;;;;39.10;18.30;;;-3.60;99.90;;;;;;5092359;28;20095;-84
2022/03/05 03:20:16;;;;;;;45.33;17.92;;;-3.70;99.90;;;;;;5075611;28;20076;-84
2022/03/05 03:22:44;;;;;;;41.58;17.25;;;-3.60;99.90;;;;;;5075706;28;20588;-84
2022/03/05 03:25:10;;;;;;;41.38;19.05;;;-3.50;99.90;;;;;;5075063;28;20115;-84
2022/03/05 03:27:37;;;;;;;41.92;18.23;;;-3.50;99.90;;;;;;5075932;28;20079;-84
2022/03/05 03:30:06;;;;;;;42.50;18.05;;;-3.50;99.90;;;;;;5075115;28;20508;-84
2022/03/05 03:32:34;;;;;;;46.92;20.08;;;-3.50;99.90;;;;;;5075697;28;20058;-84
2022/03/05 03:35:00;;;;;;;40.17;18.25;;;-3.40;99.90;;;;;;5092038;28;20044;-84
2022/03/05 03:37:29;;;;;;;41.58;17.77;;;-3.40;99.90;;;;;;5092186;28;20126;-84
2022/03/05 03:39:56;;;;;;;43.50;18.25;;;-3.50;99.90;;;;;;5092204;28;20508;-84
2022/03/05 03:42:25;;;;;;;43.70;17.92;;;-3.50;99.90;;;;;;5092287;28;20556;-84
2022/03/05 03:44:52;;;;;;;43.15;17.98;;;-3.40;99.90;;;;;;5075545;28;20139;-84
2022/03/05 03:47:20;;;;;;;40.40;17.85;;;-3.40;99.90;;;;;;5075170;28;20127;-84
2022/03/05 03:49:47;;;;;;;42.35;19.02;;;-3.40;99.90;;;;;;5092149;28;20058;-84
2022/03/05 03:52:14;;;;;;;45.83;18.15;;;-3.40;99.90;;;;;;5075423;28;20135;-84
2022/03/05 03:54:43;;;;;;;44.22;18.83;;;-3.30;99.90;;;;;;5093187;28;20472;-84
2022/03/05 03:57:11;;;;;;;45.53;19.92;;;-3.30;99.90;;;;;;5093183;28;20048;-84
2022/03/05 03:59:38;;;;;;;46.45;19.25;;;-3.30;99.90;;;;;;5075453;28;20055;-84
2022/03/05 04:02:05;;;;;;;44.88;18.88;;;-3.20;99.90;;;;;;5093228;28;20058;-84
2022/03/05 04:04:32;;;;;;;40.40;18.02;;;-3.30;99.90;;;;;;5100261;28;20515;-84
2022/03/05 04:09:44;;;;;;;42.10;18.02;;;-3.40;99.90;;;;;;5099676;28;20139;-84
2022/03/05 04:12:11;;;;;;;47.72;19.27;;;-3.30;99.90;;;;;;5099098;28;20080;-84
2022/03/05 04:14:40;;;;;;;51.15;20.20;;;-3.20;99.90;;;;;;5098665;28;20544;-84
2022/03/05 04:17:08;;;;;;;47.00;19.98;;;-3.20;99.90;;;;;;5097602;28;20079;-84
2022/03/05 04:19:35;;;;;;;49.72;20.02;;;-3.20;99.90;;;;;;5098565;28;20127;-84
2022/03/05 04:22:02;;;;;;;49.80;20.75;;;-3.30;99.90;;;;;;5097019;28;20552;-84
2022/03/05 04:24:29;;;;;;;48.83;19.50;;;-3.20;99.90;;;;;;5096699;28;20056;-84
2022/03/05 04:26:56;;;;;;;46.25;20.27;;;-3.20;99.90;;;;;;5097201;28;20048;-84
2022/03/05 04:29:23;;;;;;;47.53;19.15;;;-3.10;99.90;;;;;;5098274;28;20059;-84
2022/03/05 04:31:50;;;;;;;41.92;18.40;;;-3.20;99.90;;;;;;5079798;28;20458;-84
2022/03/05 04:34:18;;;;;;;41.83;19.48;;;-3.20;99.90;;;;;;5096861;28;20044;-84
2022/03/05 04:36:45;;;;;;;39.85;17.98;;;-3.10;99.90;;;;;;5097691;28;20166;-84
2022/03/05 04:39:12;;;;;;;39.35;17.52;;;-3.10;99.90;;;;;;5096168;28;20048;-83
2022/03/05 04:41:39;;;;;;;42.60;18.25;;;-3.10;99.90;;;;;;5096887;28;20051;-84
2022/03/05 04:44:06;;;;;;;40.80;18.73;;;-3.10;99.90;;;;;;5096652;28;20048;-84
2022/03/05 04:46:33;;;;;;;43.53;18.23;;;-3.20;99.90;;;;;;5096934;28;20044;-84
2022/03/05 04:49:00;;;;;;;38.13;17.80;;;-3.40;99.90;;;;;;5079111;28;20513;-84
2022/03/05 04:51:27;;;;;;;39.25;17.30;;;-3.30;99.90;;;;;;5078582;28;20044;-83
2022/03/05 04:53:54;;;;;;;48.80;18.58;;;-3.40;99.90;;;;;;5095825;28;20119;-83
2022/03/05 04:56:20;;;;;;;45.45;19.30;;;-3.60;99.90;;;;;;5095128;28;20048;-84
2022/03/05 04:58:47;;;;;;;47.85;19.27;;;-3.50;99.90;;;;;;5095021;28;20469;-84
2022/03/05 05:01:14;;;;;;;50.50;20.10;;;-3.50;99.90;;;;;;5095693;28;20120;-84
2022/03/05 05:03:41;;;;;;;44.25;19.48;;;-3.50;99.90;;;;;;5094990;28;20044;-83
2022/03/05 05:06:08;;;;;;;39.50;18.23;;;-3.60;99.90;;;;;;5095167;28;20051;-84
2022/03/05 05:08:35;;;;;;;50.08;19.60;;;-3.50;99.90;;;;;;5094817;28;20048;-84
2022/03/05 05:11:02;;;;;;;43.83;19.90;;;-3.50;99.90;;;;;;5078328;28;20044;-83
2022/03/05 05:13:28;;;;;;;47.83;20.10;;;-3.50;99.90;;;;;;5094633;28;20572;-83
2022/03/05 05:15:56;;;;;;;44.72;18.88;;;-3.50;99.90;;;;;;5077827;28;20158;-83
2022/03/05 05:18:22;;;;;;;40.80;18.25;;;-3.50;99.90;;;;;;5078500;28;20062;-83
2022/03/05 05:20:50;;;;;;;42.63;18.58;;;-3.50;99.90;;;;;;5096171;28;20126;-83
2022/03/05 05:23:16;;;;;;;44.92;18.75;;;-3.50;99.90;;;;;;5096711;28;20044;-84
2022/03/05 05:25:43;;;;;;;44.60;19.27;;;-3.50;99.90;;;;;;5077940;28;20151;-84
2022/03/05 05:28:10;;;;;;;42.88;18.08;;;-3.50;99.90;;;;;;5095392;28;20377;-83
2022/03/05 05:30:37;;;;;;;48.92;19.55;;;-3.50;99.90;;;;;;5096436;28;20055;-83
2022/03/05 05:33:04;;;;;;;46.67;19.77;;;-3.60;99.90;;;;;;5094999;28;20052;-83
2022/03/05 05:35:30;;;;;;;45.08;19.08;;;-3.60;99.90;;;;;;5078137;28;20044;-83
2022/03/05 05:37:57;;;;;;;46.90;18.13;;;-3.50;99.90;;;;;;5095262;28;20044;-83
2022/03/05 05:40:24;;;;;;;46.67;20.05;;;-3.50;99.90;;;;;;5094877;28;20202;-83
2022/03/05 05:42:50;;;;;;;44.13;18.33;;;-3.60;99.90;;;;;;5096443;28;20130;-83
2022/03/05 05:45:17;;;;;;;46.75;19.42;;;-3.60;99.90;;;;;;5095716;28;20135;-83
2022/03/05 05:47:44;;;;;;;50.33;20.50;;;-3.70;99.90;;;;;;5094826;28;20092;-83
2022/03/05 05:50:11;;;;;;;53.38;20.25;;;-3.60;99.90;;;;;;5095461;28;20074;-83
2022/03/05 05:52:39;;;;;;;48.65;19.75;;;-3.60;99.90;;;;;;5094739;28;20415;-83
2022/03/05 05:55:06;;;;;;;45.25;19.92;;;-3.50;99.90;;;;;;5094345;28;20445;-83
2022/03/05 05:57:32;;;;;;;49.75;19.00;;;-3.50;99.90;;;;;;5078135;28;20138;-83
2022/03/05 05:59:59;;;;;;;51.85;19.65;;;-3.50;99.90;;;;;;5094632;28;20079;-83
2022/03/05 06:02:26;;;;;;;51.05;19.90;;;-3.50;99.90;;;;;;5094344;28;20050;-83
2022/03/05 06:04:53;;;;;;;54.30;22.48;;;-3.50;99.90;;;;;;5094315;28;20083;-83
2022/03/05 06:07:20;;;;;;;59.25;19.65;;;-3.40;99.90;;;;;;5077473;28;20126;-83
2022/03/05 06:09:46;;;;;;;50.92;20.10;;;-3.30;99.90;;;;;;5077623;28;20079;-83
2022/03/05 06:12:14;;;;;;;55.10;20.95;;;-3.30;99.90;;;;;;5094361;28;20044;-83
2022/03/05 06:14:41;;;;;;;63.05;22.13;;;-3.10;99.90;;;;;;5096285;28;20094;-83
2022/03/05 06:17:08;;;;;;;57.10;21.30;;;-3.10;99.90;;;;;;5094750;28;20512;-83
2022/03/05 06:19:36;;;;;;;58.60;20.83;;;-3.00;99.90;;;;;;5096009;28;20044;-82
2022/03/05 06:22:04;;;;;;;57.13;20.92;;;-2.90;99.90;;;;;;5095787;28;20051;-83
2022/03/05 06:24:31;;;;;;;67.75;22.55;;;-2.70;99.90;;;;;;5095866;28;20120;-83
2022/03/05 06:26:58;;;;;;;55.90;22.42;;;-2.60;99.90;;;;;;5094847;28;20531;-83
2022/03/05 06:29:25;;;;;;;50.88;21.00;;;-2.50;99.90;;;;;;5095496;28;20046;-83
2022/03/05 06:31:52;;;;;;;66.32;32.45;;;-2.40;99.90;;;;;;5095453;28;20103;-83
2022/03/05 06:34:20;;;;;;;99.90;47.45;;;-2.40;99.90;;;;;;5077386;28;20048;-83
2022/03/05 06:36:46;;;;;;;53.20;22.33;;;-2.50;99.90;;;;;;5076900;28;20044;-83
2022/03/05 06:39:13;;;;;;;51.00;20.00;;;-2.50;99.90;;;;;;5093635;28;20055;-83
2022/03/05 06:41:40;;;;;;;50.00;19.65;;;-2.50;99.90;;;;;;5094010;28;20127;-83
2022/03/05 06:44:07;;;;;;;43.78;19.70;;;-2.60;99.90;;;;;;5093516;28;20130;-83
2022/03/05 06:46:34;;;;;;;49.08;20.83;;;-2.50;99.90;;;;;;5094785;28;20508;-83
2022/03/05 06:49:01;;;;;;;49.60;19.73;;;-2.60;99.90;;;;;;5093503;28;20075;-83
2022/03/05 06:51:28;;;;;;;47.47;18.73;;;-2.70;99.90;;;;;;5076568;28;20051;-83
2022/03/05 06:53:54;;;;;;;49.30;19.83;;;-2.70;99.90;;;;;;5093639;28;20135;-82
2022/03/05 06:56:21;;;;;;;44.92;20.52;;;-2.80;99.90;;;;;;5093699;28;20131;-83
2022/03/05 06:58:48;;;;;;;57.05;21.70;;;-2.80;99.90;;;;;;5094128;28;20139;-83
2022/03/05 07:01:15;;;;;;;58.40;21.75;;;-2.80;99.90;;;;;;5094379;28;20440;-83
2022/03/05 07:03:42;;;;;;;55.20;21.90;;;-2.80;99.90;;;;;;5093668;28;20075;-83
2022/03/05 07:06:09;;;;;;;48.22;19.65;;;-2.80;99.90;;;;;;5094373;28;20079;-83
2022/03/05 07:08:38;;;;;;;48.50;20.40;;;-2.70;99.90;;;;;;5094770;28;20127;-83
2022/03/05 07:11:05;;;;;;;50.85;22.35;;;-2.60;99.90;;;;;;5076455;28;20122;-83
2022/03/05 07:13:32;;;;;;;47.28;21.27;;;-2.60;99.90;;;;;;5093045;28;20095;-83
2022/03/05 07:15:59;;;;;;;47.95;20.95;;;-2.60;99.90;;;;;;5094366;28;20455;-83
2022/03/05 07:18:25;;;;;;;49.67;21.23;;;-2.60;99.90;;;;;;5093447;28;20131;-83
2022/03/05 07:20:52;;;;;;;53.88;24.20;;;-2.70;99.90;;;;;;5076649;28;20044;-83
2022/03/05 07:23:19;;;;;;;60.47;27.27;;;-2.70;99.90;;;;;;5077177;28;20075;-83
2022/03/05 07:25:46;;;;;;;50.85;22.20;;;-2.80;99.90;;;;;;5076582;28;20092;-83
2022/03/05 07:28:13;;;;;;;50.72;22.23;;;-2.70;99.90;;;;;;5093093;28;20170;-82
2022/03/05 07:30:42;;;;;;;48.92;20.05;;;-2.60;99.90;;;;;;5076226;28;20052;-82
2022/03/05 07:33:13;;;;;;;55.13;22.88;;;-2.50;99.90;;;;;;5094172;28;20103;-83
2022/03/05 07:35:40;;;;;;;54.10;22.88;;;-2.40;99.90;;;;;;5093770;28;20082;-83
2022/03/05 07:38:07;;;;;;;61.88;23.92;;;-2.40;99.90;;;;;;5081472;28;20528;-83
2022/03/05 07:40:34;;;;;;;63.75;25.17;;;-2.20;99.90;;;;;;5099630;28;20075;-83
2022/03/05 07:43:00;;;;;;;60.05;24.90;;;-1.40;99.90;;;;;;5097643;28;20071;-83
2022/03/05 07:45:27;;;;;;;50.67;22.42;;;-0.70;99.90;;;;;;5096968;28;20132;-83
2022/03/05 07:47:54;;;;;;;41.80;19.75;;;0.10;99.90;;;;;;5098598;28;20490;-83
2022/03/05 07:50:21;;;;;;;38.35;18.67;;;0.90;99.90;;;;;;5097922;28;20139;-83
2022/03/05 07:52:48;;;;;;;37.97;18.35;;;1.10;99.90;;;;;;5080398;28;20500;-83
2022/03/05 07:55:14;;;;;;;36.22;18.45;;;1.10;99.90;;;;;;5097025;28;20143;-84
2022/03/05 07:57:41;;;;;;;41.17;18.15;;;1.60;99.90;;;;;;5097213;28;20571;-84
2022/03/05 08:00:08;;;;;;;35.95;17.98;;;1.90;99.90;;;;;;5080214;28;20139;-84
2022/03/05 08:02:48;;;;;;;35.60;19.15;;;2.50;99.90;;;;;;5096505;28;20457;-83
2022/03/05 08:05:15;;;;;;;36.30;18.98;;;2.60;99.90;;;;;;5080191;28;20048;-84
2022/03/05 08:07:42;;;;;;;33.55;17.70;;;3.60;99.90;;;;;;5097014;28;20471;-83
2022/03/05 08:10:09;;;;;;;34.83;17.83;;;4.30;99.90;;;;;;5080271;28;20076;-83
2022/03/05 08:12:36;;;;;;;36.63;17.75;;;5.00;99.90;;;;;;5096748;28;20048;-84
2022/03/05 08:15:04;;;;;;;34.65;17.45;;;5.80;99.90;;;;;;5096340;28;20138;-83
2022/03/05 08:17:31;;;;;;;30.90;16.88;;;6.10;99.90;;;;;;5079922;28;20050;-83
2022/03/05 08:19:58;;;;;;;36.13;17.98;;;6.00;99.90;;;;;;5096435;28;20048;-83
2022/03/05 08:22:25;;;;;;;32.60;18.70;;;6.20;99.90;;;;;;5079819;28;20044;-83
2022/03/05 08:24:52;;;;;;;32.42;18.23;;;6.50;99.90;;;;;;5096407;28;20075;-83
2022/03/05 08:27:19;;;;;;;38.33;19.63;;;7.40;99.90;;;;;;5097685;28;20568;-83
2022/03/05 08:29:45;;;;;;;34.67;19.38;;;8.30;97.80;;;;;;5079538;28;20138;-84
2022/03/05 08:32:12;;;;;;;34.17;19.58;;;9.70;93.50;;;;;;5097276;28;20048;-83
2022/03/05 08:34:39;;;;;;;34.85;17.85;;;10.20;89.80;;;;;;5078991;28;20044;-84
2022/03/05 08:37:06;;;;;;;32.75;17.35;;;10.40;87.60;;;;;;5079931;28;20048;-84
2022/03/05 08:39:32;;;;;;;30.73;16.98;;;10.20;89.30;;;;;;5095702;28;20085;-83
2022/03/05 08:41:59;;;;;;;30.13;17.40;;;10.20;86.30;;;;;;5095812;28;20127;-84
2022/03/05 08:44:26;;;;;;;25.33;15.20;;;10.50;84.10;;;;;;5095574;28;20127;-84
2022/03/05 08:46:53;;;;;;;26.63;15.60;;;11.30;84.30;;;;;;5079093;28;20044;-84
2022/03/05 08:49:19;;;;;;;27.20;16.73;;;12.10;78.20;;;;;;5094919;28;20481;-84
2022/03/05 08:51:46;;;;;;;27.35;14.95;;;11.10;76.80;;;;;;5097336;28;20126;-84
2022/03/05 08:54:13;;;;;;;23.70;14.93;;;10.80;80.00;;;;;;5096836;28;20555;-84
2022/03/05 08:56:40;;;;;;;23.58;14.82;;;10.40;81.30;;;;;;5079055;28;20588;-84
2022/03/05 08:59:06;;;;;;;22.58;15.13;;;10.00;82.10;;;;;;5096666;28;20477;-84
2022/03/05 09:01:33;;;;;;;21.02;13.52;;;10.00;82.50;;;;;;5095901;28;20127;-84
2022/03/05 09:04:00;;;;;;;20.50;13.57;;;11.00;81.50;;;;;;5095187;28;20511;-84
2022/03/05 09:06:27;;;;;;;21.17;13.70;;;11.10;79.10;;;;;;5096713;28;20127;-85
2022/03/05 09:08:53;;;;;;;19.02;13.35;;;11.30;78.10;;;;;;5078969;28;20051;-85
2022/03/05 09:11:20;;;;;;;20.77;14.38;;;10.50;80.30;;;;;;5096950;28;20102;-85
2022/03/05 09:13:47;;;;;;;21.73;14.98;;;10.60;81.20;;;;;;5096948;28;20487;-85
2022/03/05 09:16:15;;;;;;;17.85;12.95;;;11.30;77.80;;;;;;5096635;28;20098;-85
2022/03/05 09:18:42;;;;;;;23.48;15.38;;;12.20;76.00;;;;;;5100038;28;20055;-85
2022/03/05 09:21:08;;;;;;;20.77;15.00;;;12.60;73.10;;;;;;5095388;28;20040;-85
2022/03/05 09:23:35;;;;;;;16.48;11.75;;;12.80;70.80;;;;;;5105068;28;20063;-85
2022/03/05 09:26:02;;;;;;;23.20;15.40;;;13.50;70.70;;;;;;5101381;28;20048;-85
2022/03/05 09:28:29;;;;;;;23.48;13.60;;;12.40;69.70;;;;;;5099714;28;20568;-86
2022/03/05 09:30:56;;;;;;;21.15;13.63;;;13.50;69.40;;;;;;5098489;28;20086;-86
2022/03/05 09:33:23;;;;;;;24.52;15.40;;;13.00;69.20;;;;;;5081532;28;20133;-86
2022/03/05 09:35:50;;;;;;;20.15;14.15;;;13.10;69.10;;;;;;5097988;28;20507;-85
2022/03/05 09:38:18;;;;;;;18.08;12.50;;;14.00;67.80;;;;;;5078339;28;20047;-85
2022/03/05 09:40:45;;;;;;;17.80;13.13;;;14.30;66.50;;;;;;5078396;28;20082;-85
2022/03/05 09:43:12;;;;;;;20.25;12.73;;;13.80;66.10;;;;;;5096057;28;20575;-86
2022/03/05 09:45:40;;;;;;;16.75;12.10;;;13.80;68.10;;;;;;5094993;28;20070;-85
2022/03/05 09:48:06;;;;;;;26.70;13.75;;;15.60;65.90;;;;;;5078122;28;20052;-85
2022/03/05 09:50:33;;;;;;;28.20;18.58;;;17.30;62.70;;;;;;5095117;28;20145;-85
2022/03/05 09:53:00;;;;;;;22.75;15.35;;;17.30;57.20;;;;;;5094943;28;20138;-85
2022/03/05 09:55:27;;;;;;;17.95;13.15;;;17.00;57.70;;;;;;5095965;28;20134;-85
2022/03/05 09:57:54;;;;;;;12.35;10.02;;;15.10;59.40;;;;;;5077929;28;20136;-85
2022/03/05 10:00:21;;;;;;;13.07;9.70;;;15.00;60.80;;;;;;5094882;28;20131;-85
2022/03/05 10:02:48;;;;;;;14.25;10.15;;;16.30;60.20;;;;;;5077956;28;20067;-86
2022/03/05 10:05:29;;;;;;;54.08;45.85;;;17.50;55.70;;;;;;5078044;28;20083;-83
2022/03/05 10:08:12;;;;;;;26.98;22.75;;;17.10;55.00;;;;;;5095709;28;20101;-83
2022/03/05 10:10:48;;;;;;;35.90;30.08;;;15.00;57.80;;;;;;5077788;28;20126;-83
2022/03/05 10:13:30;;;;;;;10.57;8.35;;;13.90;59.90;;;;;;5077870;28;20136;-83
2022/03/05 10:15:59;;;;;;;12.27;10.98;;;13.60;62.40;;;;;;5078246;28;20127;-83
2022/03/05 10:18:38;;;;;;;11.32;7.55;;;13.90;61.90;;;;;;5077692;28;20047;-83
2022/03/05 10:21:06;;;;;;;23.88;18.30;;;15.30;58.30;;;;;;5077427;28;20136;-83
2022/03/05 10:23:36;;;;;;;16.75;10.05;;;15.00;58.60;;;;;;5078030;28;20131;-83
2022/03/05 10:26:05;;;;;;;17.25;12.90;;;14.30;58.70;;;;;;5078411;28;20051;-83
2022/03/05 10:28:33;;;;;;;12.25;8.65;;;13.80;59.50;;;;;;5078266;28;20083;-85
2022/03/05 10:31:13;;;;;;;17.40;11.88;;;13.50;60.70;;;;;;5077980;28;20070;-85
2022/03/05 10:33:45;;;;;;;12.40;8.98;;;12.50;62.00;;;;;;5095813;28;20075;-85
2022/03/05 10:36:21;;;;;;;16.45;9.02;;;12.50;63.70;;;;;;5078333;28;20078;-85
2022/03/05 10:38:59;;;;;;;14.48;9.43;;;11.60;64.80;;;;;;5078695;28;20075;-85
2022/03/05 10:41:38;;;;;;;13.32;9.70;;;10.90;66.20;;;;;;5078435;28;20101;-85
2022/03/05 10:44:15;;;;;;;12.40;8.27;;;11.30;67.80;;;;;;5077456;28;20135;-85
2022/03/05 10:46:58;;;;;;;16.20;14.13;;;13.70;65.60;;;;;;5077451;28;20063;-85
2022/03/05 10:49:28;;;;;;;9.57;7.47;;;14.30;60.30;;;;;;5077772;28;20078;-85
2022/03/05 10:52:06;;;;;;;11.80;10.15;;;14.70;59.60;;;;;;5077825;28;20127;-85
2022/03/05 10:54:44;;;;;;;16.95;15.00;;;12.90;59.80;;;;;;5077606;28;20508;-85
2022/03/05 10:57:23;;;;;;;14.40;10.68;;;12.00;62.30;;;;;;5077865;28;20055;-85
2022/03/05 10:59:53;;;;;;;11.02;9.20;;;12.20;63.50;;;;;;5077494;28;20100;-85
2022/03/05 11:02:22;;;;;;;17.85;13.52;;;14.30;60.50;;;;;;5077456;28;20055;-85
2022/03/05 11:04:51;;;;;;;33.28;20.35;;;13.50;58.60;;;;;;5077466;28;20044;-85
2022/03/05 11:07:19;;;;;;;19.58;15.27;;;12.60;61.40;;;;;;5094291;28;20056;-85
2022/03/05 11:09:49;;;;;;;10.57;8.57;;;12.30;61.10;;;;;;5078324;28;20050;-85
2022/03/05 11:12:20;;;;;;;11.80;8.57;;;11.70;61.60;;;;;;5077682;28;20143;-85
2022/03/05 11:14:48;;;;;;;11.23;8.10;;;12.00;63.00;;;;;;5078219;28;20469;-84
2022/03/05 11:17:16;;;;;;;13.63;10.02;;;12.10;63.20;;;;;;5078973;28;20477;-84
2022/03/05 11:19:44;;;;;;;12.00;9.70;;;12.60;63.60;;;;;;5077830;28;20078;-85
2022/03/05 11:22:11;;;;;;;9.18;7.85;;;13.20;62.30;;;;;;5096793;28;20135;-85
2022/03/05 11:24:40;;;;;;;15.93;14.25;;;12.70;61.40;;;;;;5078387;28;20052;-80
2022/03/05 11:27:12;;;;;;;9.13;7.78;;;12.20;62.00;;;;;;5077304;28;20048;-83
2022/03/05 11:29:59;;;;;;;12.02;7.63;;;11.40;63.80;;;;;;5077068;28;20052;-83
2022/03/05 11:32:31;;;;;;;9.60;7.28;;;11.80;65.50;;;;;;5077305;28;20511;-83
2022/03/05 11:34:58;;;;;;;9.20;7.90;;;12.60;62.40;;;;;;5094565;28;20130;-83
2022/03/05 11:37:34;;;;;;;9.23;7.65;;;12.10;60.70;;;;;;5077275;28;20051;-82
2022/03/05 11:40:03;;;;;;;12.55;8.40;;;10.80;62.10;;;;;;5077311;28;20484;-83
2022/03/05 11:42:34;;;;;;;10.93;8.07;;;10.00;65.70;;;;;;5094814;28;20129;-82
2022/03/05 11:45:28;;;;;;;21.08;8.13;;;9.00;66.60;;;;;;5076456;28;20480;-83
2022/03/05 11:48:22;;;;;;;11.40;7.53;;;8.70;69.00;;;;;;5094717;28;20159;-82
2022/03/05 11:50:53;;;;;;;10.63;7.15;;;8.30;70.50;;;;;;5095077;28;20055;-82
2022/03/05 11:53:20;;;;;;;12.65;6.93;;;8.10;71.80;;;;;;5077415;28;20412;-83
2022/03/05 11:55:47;;;;;;;10.25;6.30;;;8.20;72.50;;;;;;5076396;28;20130;-83
2022/03/05 11:58:14;;;;;;;7.95;5.93;;;8.60;71.20;;;;;;5094625;28;20090;-83
2022/03/05 12:00:41;;;;;;;10.90;6.47;;;11.00;69.80;;;;;;5077215;28;20080;-83
2022/03/05 12:03:08;;;;;;;8.57;5.88;;;12.10;62.70;;;;;;5077240;28;20130;-83
2022/03/05 12:05:38;;;;;;;6.72;6.03;;;11.80;59.90;;;;;;5076707;28;20075;-83
2022/03/05 12:08:10;;;;;;;6.75;5.97;;;11.80;61.00;;;;;;5077106;28;20060;-83
2022/03/05 12:10:38;;;;;;;5.70;5.15;;;11.60;61.30;;;;;;5076953;28;20098;-83
2022/03/05 12:13:10;;;;;;;5.40;4.75;;;11.00;60.80;;;;;;5076681;28;20131;-83
2022/03/05 12:15:44;;;;;;;8.30;7.22;;;10.80;62.00;;;;;;5076472;28;20497;-83
2022/03/05 12:18:14;;;;;;;8.82;6.75;;;10.10;62.70;;;;;;5076385;28;20044;-83
2022/03/05 12:20:44;;;;;;;9.90;6.75;;;9.70;64.00;;;;;;5094630;28;20040;-82
2022/03/05 12:23:16;;;;;;;8.65;6.93;;;9.30;66.50;;;;;;5077329;28;20465;-82
2022/03/05 12:25:45;;;;;;;12.70;7.32;;;9.40;66.90;;;;;;5079778;28;20048;-82
2022/03/05 12:28:18;;;;;;;12.90;8.23;;;10.50;67.40;;;;;;5098121;28;20111;-82
2022/03/05 12:30:45;;;;;;;11.68;8.57;;;10.90;65.70;;;;;;5080106;28;20044;-82
2022/03/05 12:33:16;;;;;;;8.65;7.18;;;10.60;66.50;;;;;;5098186;28;20139;-83
2022/03/05 12:35:45;;;;;;;14.70;9.15;;;10.10;66.30;;;;;;5098003;28;20048;-82
2022/03/05 12:38:20;;;;;;;11.25;8.75;;;9.70;69.10;;;;;;5079944;28;20135;-81